Impacts METAR Board INFO
IDs:

KMIA - Miami Intl, FL, US

Updated at: 0229 UTC 17 Dec 2017
Potential Impact None Slight Moderate High
Time16/14Z 16/15Z 16/16Z 16/17Z 16/18Z 16/19Z 16/20Z 16/21Z 16/22Z 16/23Z 17/00Z 17/01Z 17/02Z
VIS10 10 10 10 10 10 10 10 10 10 10 10 10
CIG250 250 250 250 250 250 250 250 250 250 250 250 --
CoverBKNBKNBKNBKNBKNBKNBKNBKNBKNBKNBKNBKNSCT
FltCatVFRVFRVFRVFRVFRVFRVFRVFRVFRVFRVFRVFRVFR
WX--------------------------
WDir1020060408070607050305060
WSpd3 5 5 5 8 9 10 7 7 6 4 5 6
WGst-- -- -- -- -- -- -- -- -- -- -- -- --
Raw hourly METARs
KMIA 161353Z 01003KT 10SM FEW025 BKN250 20/16 A3022 RMK AO2 SLP232 T02000156
KMIA 161453Z 02005KT 10SM FEW025 BKN250 23/16 A3023 RMK AO2 SLP236 T02330161 51017
KMIA 161553Z VRB05KT 10SM FEW025 BKN250 26/17 A3022 RMK AO2 SLP234 T02560167
KMIA 161653Z 06005KT 10SM FEW025 BKN250 26/15 A3020 RMK AO2 SLP226 T02560150
KMIA 161753Z 04008KT 10SM FEW035 BKN250 27/17 A3016 RMK AO2 SLP214 T02720167 10272 20172 58021
KMIA 161853Z 08009KT 10SM SCT040 BKN250 26/16 A3016 RMK AO2 SLP212 T02610161
KMIA 161953Z 07010KT 10SM SCT040 BKN250 26/16 A3015 RMK AO2 SLP210 T02610161
KMIA 162053Z 06007KT 10SM SCT038 BKN250 26/16 A3015 RMK AO2 SLP208 T02560161 56006
KMIA 162153Z 07007KT 10SM SCT040 BKN250 25/16 A3016 RMK AO2 SLP213 T02500156
KMIA 162253Z 05006KT 10SM FEW040 BKN250 24/16 A3018 RMK AO2 SLP218 T02390156
KMIA 162353Z 03004KT 10SM FEW032 BKN250 23/16 A3019 RMK AO2 SLP223 T02330161 10272 20233 52015
KMIA 170053Z 05005KT 10SM FEW041 BKN250 23/16 A3020 RMK AO2 SLP227 T02280156
KMIA 170153Z 06006KT 10SM FEW035 SCT250 23/16 A3021 RMK AO2 SLP229 T02330156